createdAt,value
2018-03-07T00:00:45.884Z,37.60
2018-03-07T00:03:14.113Z,35.60
2018-03-07T00:05:42.481Z,39.03
2018-03-07T00:08:09.947Z,37.85
2018-03-07T00:10:37.464Z,39.63
2018-03-07T00:13:04.928Z,38.05
2018-03-07T00:15:32.384Z,39.28
2018-03-07T00:17:59.839Z,38.40
2018-03-07T00:20:27.308Z,38.55
2018-03-07T00:22:54.767Z,37.75
2018-03-07T00:25:22.226Z,40.00
2018-03-07T00:27:49.685Z,38.92
2018-03-07T00:30:17.938Z,38.25
2018-03-07T00:32:46.160Z,40.12
2018-03-07T00:35:14.404Z,39.28
2018-03-07T00:37:41.880Z,40.55
2018-03-07T00:40:09.348Z,40.80
2018-03-07T00:42:36.812Z,40.25
2018-03-07T00:45:04.276Z,39.00
2018-03-07T00:47:31.740Z,39.00
2018-03-07T00:49:59.207Z,39.80
2018-03-07T00:52:26.668Z,41.63
2018-03-07T00:54:54.115Z,40.35
2018-03-07T00:57:21.636Z,40.80
2018-03-07T00:59:49.104Z,40.12
2018-03-07T01:02:16.557Z,40.65
2018-03-07T01:04:44.024Z,41.08
2018-03-07T01:07:11.483Z,40.35
2018-03-07T01:09:38.940Z,40.63
2018-03-07T01:12:06.391Z,39.33
2018-03-07T01:14:34.628Z,37.90
2018-03-07T01:17:02.085Z,38.83
2018-03-07T01:19:29.576Z,40.47
2018-03-07T01:21:57.148Z,39.72
2018-03-07T01:24:24.616Z,40.50
2018-03-07T01:26:52.072Z,41.60
2018-03-07T01:29:19.532Z,40.72
2018-03-07T01:31:46.992Z,43.40
2018-03-07T01:34:14.508Z,41.40
2018-03-07T01:36:41.968Z,40.12
2018-03-07T01:39:09.432Z,38.83
2018-03-07T01:41:36.900Z,40.53
2018-03-07T01:44:04.476Z,38.10
2018-03-07T01:46:31.932Z,40.88
2018-03-07T01:48:59.379Z,39.30
2018-03-07T01:51:38.687Z,38.67
2018-03-07T01:54:07.001Z,40.42
2018-03-07T01:56:35.231Z,41.28
2018-03-07T01:59:02.684Z,42.28
2018-03-07T02:01:30.178Z,42.85
2018-03-07T02:03:57.657Z,43.20
2018-03-07T02:06:25.125Z,39.70
2018-03-07T02:08:52.592Z,43.00
2018-03-07T02:11:20.054Z,41.90
2018-03-07T02:13:47.524Z,40.90
2018-03-07T02:16:14.988Z,40.60
2018-03-07T02:18:42.460Z,42.35
2018-03-07T02:21:10.683Z,43.65
2018-03-07T02:23:38.945Z,41.08
2018-03-07T02:26:06.408Z,43.47
2018-03-07T02:28:33.884Z,41.83
2018-03-07T02:31:01.344Z,40.85
2018-03-07T02:33:28.809Z,43.13
2018-03-07T02:35:56.285Z,41.47
2018-03-07T02:38:23.740Z,40.90
2018-03-07T02:40:51.200Z,42.83
2018-03-07T02:43:18.655Z,41.95
2018-03-07T02:45:46.164Z,42.62
2018-03-07T02:48:13.632Z,43.50
2018-03-07T02:50:41.103Z,42.08
2018-03-07T02:53:08.578Z,42.03
2018-03-07T02:55:36.027Z,43.10
2018-03-07T02:58:03.517Z,42.70
2018-03-07T03:00:31.092Z,42.40
2018-03-07T03:02:58.550Z,43.63
2018-03-07T03:05:26.022Z,43.35
2018-03-07T03:07:53.476Z,41.50
2018-03-07T03:10:20.964Z,42.78
2018-03-07T03:12:48.440Z,41.08
2018-03-07T03:15:15.900Z,42.50
2018-03-07T03:17:43.372Z,45.65
2018-03-07T03:20:11.612Z,44.88
2018-03-07T03:22:39.068Z,46.53
2018-03-07T03:25:07.309Z,46.90
2018-03-07T03:27:34.764Z,47.85
2018-03-07T03:30:02.236Z,45.50
2018-03-07T03:32:29.723Z,43.33
2018-03-07T03:34:57.193Z,41.45
2018-03-07T03:37:24.661Z,40.53
2018-03-07T03:39:52.132Z,40.90
2018-03-07T03:42:19.595Z,44.67
2018-03-07T03:44:47.056Z,43.75
2018-03-07T03:47:14.539Z,46.85
2018-03-07T03:49:42.012Z,45.65
2018-03-07T03:52:09.583Z,45.00
2018-03-07T03:54:37.053Z,42.60
2018-03-07T03:57:04.504Z,44.10
2018-03-07T03:59:31.968Z,43.53
2018-03-07T04:01:59.463Z,44.05
2018-03-07T04:04:26.923Z,41.85
2018-03-07T04:06:54.400Z,44.67
2018-03-07T04:09:21.864Z,42.03
2018-03-07T04:11:49.323Z,42.95
2018-03-07T04:14:16.799Z,43.28
2018-03-07T04:16:44.280Z,42.58
2018-03-07T04:19:11.754Z,42.33
2018-03-07T04:21:39.220Z,45.12
2018-03-07T04:24:06.784Z,46.00
2018-03-07T04:26:34.244Z,42.50
2018-03-07T04:29:01.705Z,42.47
2018-03-07T04:31:29.195Z,41.25
2018-03-07T04:33:56.653Z,40.85
2018-03-07T04:36:24.113Z,41.97
2018-03-07T04:38:51.572Z,43.15
2018-03-07T04:41:19.081Z,42.85
2018-03-07T04:43:46.648Z,41.97
2018-03-07T04:46:14.124Z,42.35
2018-03-07T04:48:41.691Z,42.80
2018-03-07T04:51:09.143Z,42.75
2018-03-07T04:53:36.604Z,41.75
2018-03-07T04:56:04.068Z,43.60
2018-03-07T04:58:31.535Z,43.15
2018-03-07T05:00:58.996Z,39.95
2018-03-07T05:03:26.510Z,42.28
2018-03-07T05:05:53.964Z,43.83
2018-03-07T05:08:21.428Z,46.15
2018-03-07T05:10:48.892Z,47.62
2018-03-07T05:13:16.380Z,47.28
2018-03-07T05:15:43.848Z,46.40
2018-03-07T05:18:11.324Z,50.42
2018-03-07T05:20:38.896Z,46.20
2018-03-07T05:23:06.365Z,48.63
2018-03-07T05:25:33.832Z,49.75
2018-03-07T05:28:01.613Z,46.63
2018-03-07T05:30:29.084Z,48.60
2018-03-07T05:32:56.555Z,46.95
2018-03-07T05:35:24.007Z,49.15
2018-03-07T05:37:51.463Z,49.15
2018-03-07T05:40:18.944Z,49.15
2018-03-07T05:42:46.404Z,50.90
2018-03-07T05:45:13.856Z,51.65
2018-03-07T05:47:41.320Z,50.03
2018-03-07T05:50:08.785Z,53.25
2018-03-07T05:52:36.264Z,51.10
2018-03-07T05:55:03.722Z,52.75
2018-03-07T05:57:31.177Z,50.65
2018-03-07T05:59:59.411Z,55.67
2018-03-07T06:02:26.880Z,56.30
2018-03-07T06:04:54.340Z,55.47
2018-03-07T06:07:21.795Z,55.85
2018-03-07T06:09:49.291Z,56.22
2018-03-07T06:12:16.755Z,57.58
2018-03-07T06:14:44.207Z,53.83
2018-03-07T06:17:11.940Z,54.25
2018-03-07T06:19:40.207Z,55.90
2018-03-07T06:22:07.668Z,56.13
2018-03-07T06:24:35.144Z,55.10
2018-03-07T06:27:02.625Z,52.05
2018-03-07T06:29:30.188Z,52.03
2018-03-07T06:31:57.661Z,54.45
2018-03-07T06:34:25.122Z,58.35
2018-03-07T06:36:52.596Z,56.65
2018-03-07T06:39:20.073Z,53.83
2018-03-07T06:41:47.540Z,52.25
2018-03-07T06:44:15.010Z,60.63
2018-03-07T06:46:42.480Z,50.25
2018-03-07T06:49:09.943Z,51.03
2018-03-07T06:51:37.400Z,52.10
2018-03-07T06:54:04.876Z,54.33
2018-03-07T06:56:32.334Z,52.65
2018-03-07T06:58:59.783Z,51.05
2018-03-07T07:01:27.259Z,47.58
2018-03-07T07:03:54.708Z,50.28
2018-03-07T07:06:22.172Z,48.28
2018-03-07T07:08:50.404Z,55.25
2018-03-07T07:11:17.861Z,52.28
2018-03-07T07:13:45.327Z,55.80
2018-03-07T07:16:12.793Z,63.22
2018-03-07T07:18:40.260Z,63.38
2018-03-07T07:21:07.764Z,60.35
2018-03-07T07:23:35.223Z,59.47
2018-03-07T07:26:02.703Z,59.80
2018-03-07T07:28:30.169Z,63.15
2018-03-07T07:30:57.635Z,62.65
2018-03-07T07:33:25.113Z,64.75
2018-03-07T07:35:52.587Z,59.85
2018-03-07T07:38:20.047Z,60.97
2018-03-07T07:40:47.530Z,64.32
2018-03-07T07:43:15.007Z,60.80
2018-03-07T07:45:42.466Z,61.83
2018-03-07T07:48:09.928Z,60.42
2018-03-07T07:50:37.400Z,58.90
2018-03-07T07:53:04.865Z,57.85
2018-03-07T07:55:32.328Z,54.80
2018-03-07T07:57:59.812Z,53.92
2018-03-07T08:00:27.276Z,51.60
2018-03-07T08:02:54.737Z,52.30
2018-03-07T08:05:22.209Z,49.97
2018-03-07T08:07:49.787Z,47.78
2018-03-07T08:10:17.244Z,45.80
2018-03-07T08:12:44.705Z,45.20
2018-03-07T08:15:12.196Z,42.62
2018-03-07T08:17:39.656Z,44.13
2018-03-07T08:20:07.116Z,44.80
2018-03-07T08:22:34.575Z,38.92
2018-03-07T08:25:02.053Z,37.80
2018-03-07T08:27:29.508Z,35.50
2018-03-07T08:29:56.961Z,34.28
2018-03-07T08:32:25.223Z,33.40
2018-03-07T08:34:52.676Z,27.95
2018-03-07T08:37:20.135Z,30.02
2018-03-07T08:39:47.599Z,28.17
2018-03-07T08:42:15.074Z,27.37
2018-03-07T08:44:42.528Z,27.58
2018-03-07T08:47:09.988Z,25.23
2018-03-07T08:49:37.464Z,21.45
2018-03-07T08:52:04.936Z,24.83
2018-03-07T08:54:32.391Z,25.50
2018-03-07T08:56:59.892Z,23.90
2018-03-07T08:59:27.377Z,25.30
2018-03-07T09:01:54.931Z,26.00
2018-03-07T09:04:22.384Z,23.73
2018-03-07T09:06:49.848Z,21.62
2018-03-07T09:09:17.344Z,23.42
2018-03-07T09:11:44.808Z,22.45
2018-03-07T09:14:12.268Z,20.65
2018-03-07T09:16:39.737Z,19.10
2018-03-07T09:19:07.213Z,20.98
2018-03-07T09:21:34.672Z,18.90
2018-03-07T09:24:02.138Z,18.40
2018-03-07T09:26:29.631Z,18.00
2018-03-07T09:28:57.142Z,18.30
2018-03-07T09:31:24.579Z,19.37
2018-03-07T09:33:52.042Z,36.42
2018-03-07T09:36:19.491Z,28.95
2018-03-07T09:38:46.984Z,16.45
2018-03-07T09:41:14.441Z,13.98
2018-03-07T09:43:41.903Z,15.23
2018-03-07T09:46:09.367Z,15.07
2018-03-07T09:48:36.839Z,16.50
2018-03-07T09:51:04.301Z,12.00
2018-03-07T09:53:31.793Z,12.98
2018-03-07T09:55:59.256Z,14.23
2018-03-07T09:58:26.719Z,16.40
2018-03-07T10:00:54.209Z,16.27
2018-03-07T10:03:21.688Z,16.10
2018-03-07T10:05:49.153Z,15.68
2018-03-07T10:08:16.637Z,15.80
2018-03-07T10:10:44.104Z,17.58
2018-03-07T10:13:11.569Z,16.62
2018-03-07T10:15:39.043Z,18.25
2018-03-07T10:18:08.228Z,17.58
2018-03-07T10:20:35.705Z,16.92
2018-03-07T10:23:03.271Z,14.43
2018-03-07T10:25:30.769Z,15.07
2018-03-07T10:27:59.045Z,14.45
2018-03-07T10:30:26.600Z,14.77
2018-03-07T10:32:54.172Z,14.13
2018-03-07T10:35:21.647Z,13.93
2018-03-07T10:37:49.211Z,13.60
2018-03-07T10:40:16.682Z,14.68
2018-03-07T10:42:44.258Z,15.05
2018-03-07T10:45:11.724Z,13.27
2018-03-07T10:47:39.300Z,14.30
2018-03-07T10:50:06.868Z,14.10
2018-03-07T10:52:34.344Z,14.17
2018-03-07T10:55:01.812Z,12.50
2018-03-07T10:57:29.276Z,13.43
2018-03-07T10:59:56.853Z,14.10
2018-03-07T11:02:25.085Z,13.23
2018-03-07T11:04:52.564Z,13.00
2018-03-07T11:07:20.028Z,13.83
2018-03-07T11:09:47.487Z,14.00
2018-03-07T11:12:15.720Z,13.73
2018-03-07T11:14:43.204Z,13.87
2018-03-07T11:17:10.778Z,13.73
2018-03-07T11:19:38.237Z,14.70
2018-03-07T11:22:05.708Z,12.77
2018-03-07T11:24:33.172Z,13.30
2018-03-07T11:27:00.642Z,13.30
2018-03-07T11:32:19.235Z,12.30
2018-03-07T11:34:46.834Z,12.13
2018-03-07T11:37:14.411Z,12.50
2018-03-07T11:39:42.651Z,12.13
2018-03-07T11:42:10.122Z,11.67
2018-03-07T11:44:37.634Z,13.50
2018-03-07T11:47:05.922Z,15.40
2018-03-07T11:49:33.999Z,16.73
2018-03-07T11:52:01.475Z,15.97
2018-03-07T11:54:28.955Z,17.80
2018-03-07T11:56:56.458Z,17.43
2018-03-07T11:59:23.928Z,16.57
2018-03-07T12:01:51.402Z,18.37
2018-03-07T12:04:18.963Z,18.50
2018-03-07T12:06:46.437Z,19.83
2018-03-07T12:09:13.927Z,21.97
2018-03-07T12:11:41.433Z,21.33
2018-03-07T12:14:08.921Z,20.13
2018-03-07T12:16:36.391Z,21.07
2018-03-07T12:19:04.665Z,21.80
2018-03-07T12:21:32.150Z,21.20
2018-03-07T12:24:00.394Z,20.50
2018-03-07T12:26:27.875Z,21.67
2018-03-07T12:28:55.360Z,21.27
2018-03-07T12:31:22.847Z,19.47
2018-03-07T12:33:51.091Z,19.63
2018-03-07T12:36:18.575Z,18.53
2018-03-07T12:38:46.054Z,20.30
2018-03-07T12:41:13.637Z,20.30
2018-03-07T12:43:41.115Z,21.23
2018-03-07T12:46:09.350Z,21.90
2018-03-07T12:48:36.821Z,19.47
2018-03-07T12:51:04.336Z,20.60
2018-03-07T12:53:31.818Z,20.07
2018-03-07T12:56:00.064Z,20.23
2018-03-07T12:58:27.547Z,21.73
2018-03-07T13:00:55.026Z,20.67
2018-03-07T13:03:22.504Z,21.10
2018-03-07T13:05:50.066Z,18.90
2018-03-07T13:08:17.553Z,19.03
2018-03-07T13:10:45.828Z,21.00
2018-03-07T13:13:13.399Z,18.77
2018-03-07T13:15:40.974Z,18.77
2018-03-07T13:18:08.545Z,18.27
2018-03-07T13:20:36.039Z,18.80
2018-03-07T13:23:04.275Z,17.60
2018-03-07T13:25:31.766Z,19.57
2018-03-07T13:27:59.263Z,19.37
2018-03-07T13:30:26.747Z,19.85
2018-03-07T13:32:54.271Z,20.02
2018-03-07T13:35:21.846Z,20.60
2018-03-07T13:37:49.428Z,20.40
2018-03-07T13:40:16.912Z,20.23
2018-03-07T13:42:45.159Z,18.17
2018-03-07T13:45:12.651Z,17.20
2018-03-07T13:47:40.223Z,14.65
2018-03-07T13:50:07.790Z,14.25
2018-03-07T13:52:35.291Z,13.98
2018-03-07T13:55:02.863Z,16.20
2018-03-07T13:57:31.101Z,15.20
2018-03-07T13:59:58.589Z,14.85
2018-03-07T14:02:26.099Z,12.68
2018-03-07T14:04:53.601Z,12.13
2018-03-07T14:07:21.079Z,12.10
2018-03-07T14:09:48.611Z,10.88
2018-03-07T14:12:16.094Z,12.25
2018-03-07T14:14:43.596Z,14.68
2018-03-07T14:17:11.087Z,14.70
2018-03-07T14:19:38.663Z,16.58
2018-03-07T14:22:06.140Z,15.00
2018-03-07T14:24:34.371Z,15.55
2018-03-07T14:27:01.864Z,13.70
2018-03-07T14:29:29.347Z,16.25
2018-03-07T14:31:56.825Z,15.60
2018-03-07T14:34:24.390Z,15.15
2018-03-07T14:36:51.967Z,16.67
2018-03-07T14:39:19.445Z,19.10
2018-03-07T14:41:47.016Z,18.02
2018-03-07T14:44:14.499Z,17.60
2018-03-07T14:46:42.734Z,21.60
2018-03-07T14:49:10.260Z,20.50
2018-03-07T14:51:38.498Z,17.92
2018-03-07T14:54:05.990Z,18.05
2018-03-07T14:56:33.463Z,18.00
2018-03-07T14:59:00.951Z,17.70
2018-03-07T15:01:29.219Z,17.40
2018-03-07T15:03:56.730Z,16.73
2018-03-07T15:06:24.207Z,19.37
2018-03-07T15:08:51.693Z,19.05
2018-03-07T15:11:19.182Z,17.30
2018-03-07T15:13:46.663Z,17.85
2018-03-07T15:16:14.154Z,17.77
2018-03-07T15:18:41.643Z,18.40
2018-03-07T15:21:09.135Z,18.27
2018-03-07T15:23:36.647Z,17.83
2018-03-07T15:26:04.139Z,16.90
2018-03-07T15:28:32.410Z,16.50
2018-03-07T15:30:59.895Z,14.60
2018-03-07T15:33:28.170Z,16.95
2018-03-07T15:35:55.739Z,17.08
2018-03-07T15:38:23.215Z,16.37
2018-03-07T15:40:50.772Z,16.62
2018-03-07T15:43:18.265Z,14.63
2018-03-07T15:45:46.550Z,14.25
2018-03-07T15:48:14.114Z,14.13
2018-03-07T15:50:41.594Z,15.15
2018-03-07T15:53:09.909Z,15.70
2018-03-07T15:55:37.431Z,16.00
2018-03-07T15:58:04.908Z,17.48
2018-03-07T16:00:32.386Z,17.62
2018-03-07T16:02:59.864Z,17.85
2018-03-07T16:05:28.108Z,16.83
2018-03-07T16:07:55.578Z,19.77
2018-03-07T16:10:23.076Z,18.60
2018-03-07T16:12:50.654Z,18.23
2018-03-07T16:15:18.224Z,18.58
2018-03-07T16:17:45.717Z,19.52
2018-03-07T16:20:13.968Z,19.48
2018-03-07T16:22:41.455Z,19.55
2018-03-07T16:25:09.013Z,19.85
2018-03-07T16:27:36.521Z,20.55
2018-03-07T16:30:04.783Z,21.10
2018-03-07T16:32:32.351Z,22.37
2018-03-07T16:34:59.919Z,22.08
2018-03-07T16:37:27.400Z,19.42
2018-03-07T16:39:54.878Z,18.45
2018-03-07T16:42:23.150Z,19.15
2018-03-07T16:44:50.720Z,19.25
2018-03-07T16:47:18.195Z,19.65
2018-03-07T16:49:45.692Z,18.60
2018-03-07T16:52:13.946Z,18.77
2018-03-07T16:54:41.423Z,18.30
2018-03-07T16:57:09.009Z,20.58
2018-03-07T16:59:38.006Z,19.70
2018-03-07T17:04:57.009Z,20.33
2018-03-07T17:07:24.485Z,21.00
2018-03-07T17:09:52.729Z,19.40
2018-03-07T17:12:20.213Z,20.92
2018-03-07T17:14:47.692Z,19.77
2018-03-07T17:17:15.163Z,19.90
2018-03-07T17:19:42.650Z,18.27
2018-03-07T17:22:10.210Z,19.73
2018-03-07T17:24:37.692Z,19.25
2018-03-07T17:27:05.185Z,19.55
2018-03-07T17:29:33.092Z,20.08
2018-03-07T17:32:00.586Z,20.55
2018-03-07T17:34:28.370Z,18.85
2018-03-07T17:36:55.868Z,18.55
2018-03-07T17:39:24.907Z,18.50
2018-03-07T17:41:52.379Z,21.30
2018-03-07T17:44:19.851Z,19.87
2018-03-07T17:46:47.312Z,19.00
2018-03-07T17:49:14.794Z,21.52
2018-03-07T17:51:42.280Z,21.15
2018-03-07T17:54:10.631Z,21.52
2018-03-07T17:56:38.099Z,20.10
2018-03-07T17:59:05.574Z,22.08
2018-03-07T18:01:33.058Z,24.75
2018-03-07T18:04:00.523Z,33.70
2018-03-07T18:06:28.018Z,23.33
2018-03-07T18:08:55.503Z,23.67
2018-03-07T18:11:22.987Z,26.25
2018-03-07T18:13:50.475Z,26.23
2018-03-07T18:16:18.712Z,25.80
2018-03-07T18:18:46.778Z,27.37
2018-03-07T18:21:14.274Z,26.42
2018-03-07T18:23:41.746Z,26.35
2018-03-07T18:26:09.210Z,26.40
2018-03-07T18:28:36.690Z,28.00
2018-03-07T18:31:04.167Z,25.88
2018-03-07T18:33:31.644Z,31.65
2018-03-07T18:35:59.191Z,29.48
2018-03-07T18:38:26.667Z,30.35
2018-03-07T18:40:54.141Z,31.70
2018-03-07T18:43:21.610Z,29.83
2018-03-07T18:45:49.230Z,28.60
2018-03-07T18:48:16.707Z,29.00
2018-03-07T18:50:44.178Z,28.42
2018-03-07T18:53:11.666Z,28.20
2018-03-07T18:55:39.135Z,31.25
2018-03-07T18:58:06.618Z,28.20
2018-03-07T19:00:34.104Z,30.20
2018-03-07T19:03:01.584Z,30.00
2018-03-07T19:05:29.936Z,29.30
2018-03-07T19:07:57.431Z,34.20
2018-03-07T19:10:24.910Z,31.80
2018-03-07T19:12:52.373Z,33.30
2018-03-07T19:15:19.829Z,30.20
2018-03-07T19:17:47.300Z,32.33
2018-03-07T19:20:18.751Z,31.30
2018-03-07T19:22:46.235Z,31.87
2018-03-07T19:25:13.691Z,33.40
2018-03-07T19:27:41.168Z,35.90
2018-03-07T19:30:08.658Z,34.65
2018-03-07T19:32:36.122Z,34.80
2018-03-07T19:35:03.584Z,35.00
2018-03-07T19:37:31.045Z,32.17
2018-03-07T19:39:58.500Z,30.60
2018-03-07T19:42:27.850Z,30.30
2018-03-07T19:44:55.305Z,30.33
2018-03-07T19:47:22.763Z,30.00
2018-03-07T19:49:50.224Z,28.30
2018-03-07T19:52:17.698Z,26.12
2018-03-07T19:54:45.159Z,25.45
2018-03-07T19:57:12.618Z,25.67
2018-03-07T19:59:40.083Z,20.40
2018-03-07T20:02:07.547Z,20.70
2018-03-07T20:04:35.000Z,21.02
2018-03-07T20:07:03.236Z,20.58
2018-03-07T20:09:30.753Z,19.25
2018-03-07T20:11:58.992Z,18.98
2018-03-07T20:14:26.485Z,19.25
2018-03-07T20:16:53.940Z,18.20
2018-03-07T20:19:21.395Z,17.75
2018-03-07T20:21:48.917Z,16.12
2018-03-07T20:24:17.168Z,15.80
2018-03-07T20:26:44.657Z,13.32
2018-03-07T20:29:12.112Z,14.55
2018-03-07T20:31:39.610Z,13.40
2018-03-07T20:34:07.152Z,12.40
2018-03-07T20:36:34.637Z,11.93
2018-03-07T20:39:02.111Z,13.45
2018-03-07T20:41:29.672Z,12.45
2018-03-07T20:43:57.180Z,11.43
2018-03-07T20:46:24.712Z,13.75
2018-03-07T20:48:52.301Z,14.25
2018-03-07T20:51:19.857Z,15.68
2018-03-07T20:53:47.322Z,14.07
2018-03-07T20:56:14.776Z,15.98
2018-03-07T20:58:42.241Z,16.55
2018-03-07T21:01:09.715Z,16.00
2018-03-07T21:03:37.176Z,15.48
2018-03-07T21:06:04.668Z,15.40
2018-03-07T21:08:32.243Z,15.50
2018-03-07T21:10:59.696Z,16.10
2018-03-07T21:13:27.158Z,16.17
2018-03-07T21:15:54.633Z,18.08
2018-03-07T21:18:22.086Z,15.77
2018-03-07T21:20:49.572Z,15.20
2018-03-07T21:23:17.048Z,15.70
2018-03-07T21:25:44.531Z,16.98
2018-03-07T21:28:11.995Z,17.42
2018-03-07T21:30:39.466Z,20.20
2018-03-07T21:33:06.946Z,20.15
2018-03-07T21:35:34.428Z,18.52
2018-03-07T21:38:01.885Z,20.10
2018-03-07T21:40:29.340Z,18.60
2018-03-07T21:42:56.808Z,20.45
2018-03-07T21:45:24.272Z,22.37
2018-03-07T21:47:51.736Z,20.70
2018-03-07T21:50:19.201Z,20.67
2018-03-07T21:52:46.663Z,23.58
2018-03-07T21:55:14.132Z,20.88
2018-03-07T21:57:41.600Z,22.50
2018-03-07T22:00:09.081Z,22.27
2018-03-07T22:02:36.572Z,22.70
2018-03-07T22:05:04.037Z,23.30
2018-03-07T22:07:31.503Z,21.87
2018-03-07T22:09:58.963Z,22.98
2018-03-07T22:12:26.432Z,23.52
2018-03-07T22:14:53.892Z,22.95
2018-03-07T22:17:21.352Z,23.95
2018-03-07T22:19:48.821Z,22.95
2018-03-07T22:22:16.280Z,24.00
2018-03-07T22:24:43.745Z,24.40
2018-03-07T22:27:11.205Z,22.20
2018-03-07T22:29:39.442Z,23.70
2018-03-07T22:32:06.900Z,23.30
2018-03-07T22:34:34.352Z,25.02
2018-03-07T22:37:01.819Z,25.85
2018-03-07T22:39:29.335Z,24.83
2018-03-07T22:41:56.920Z,23.65
2018-03-07T22:44:25.142Z,25.40
2018-03-07T22:46:52.600Z,25.95
2018-03-07T22:49:20.825Z,24.23
2018-03-07T22:51:48.348Z,24.63
2018-03-07T22:54:15.893Z,23.52
2018-03-07T22:56:43.364Z,26.05
2018-03-07T22:59:10.821Z,26.80
2018-03-07T23:01:38.283Z,25.92
2018-03-07T23:04:05.745Z,27.58
2018-03-07T23:06:33.196Z,25.27
2018-03-07T23:09:00.703Z,25.75
2018-03-07T23:11:28.176Z,28.23
2018-03-07T23:13:55.748Z,27.02
2018-03-07T23:16:23.208Z,25.35
2018-03-07T23:18:50.675Z,23.50
2018-03-07T23:21:18.144Z,26.08
2018-03-07T23:23:45.600Z,24.67
2018-03-07T23:26:13.071Z,20.73
2018-03-07T23:28:40.529Z,17.00
2018-03-07T23:31:08.034Z,11.80
2018-03-07T23:33:35.492Z,12.25
2018-03-07T23:36:03.068Z,13.10
2018-03-07T23:38:30.543Z,10.15
2018-03-07T23:40:58.005Z,13.23
2018-03-07T23:43:25.485Z,11.50
2018-03-07T23:45:52.940Z,14.20
2018-03-07T23:48:20.417Z,13.02
2018-03-07T23:50:47.879Z,11.77
2018-03-07T23:53:15.403Z,13.23
2018-03-07T23:55:42.826Z,12.43
2018-03-07T23:58:10.288Z,11.12
